createdAt,value
2019-04-27T00:01:54.906Z,13.90
2019-04-27T00:05:20.291Z,20.40
2019-04-27T00:08:38.850Z,12.73
2019-04-27T00:11:23.020Z,12.90
2019-04-27T00:14:21.915Z,16.00
2019-04-27T00:17:20.972Z,18.53
2019-04-27T00:20:13.120Z,12.97
2019-04-27T00:22:54.874Z,14.73
2019-04-27T00:25:33.966Z,18.97
2019-04-27T00:28:14.277Z,18.53
2019-04-27T00:30:55.007Z,17.77
2019-04-27T00:33:30.847Z,18.20
2019-04-27T00:36:18.123Z,14.60
2019-04-27T00:39:15.590Z,13.90
2019-04-27T00:41:57.210Z,12.33
2019-04-27T00:44:40.435Z,13.57
2019-04-27T00:47:16.750Z,14.63
2019-04-27T00:49:54.990Z,19.03
2019-04-27T00:52:32.601Z,16.20
2019-04-27T00:55:13.090Z,18.27
2019-04-27T00:58:01.654Z,18.27
2019-04-27T01:00:58.102Z,23.73
2019-04-27T01:03:42.978Z,21.93
2019-04-27T01:06:19.861Z,23.10
2019-04-27T01:08:55.655Z,21.30
2019-04-27T01:11:35.830Z,19.07
2019-04-27T01:14:12.807Z,17.70
2019-04-27T01:16:51.529Z,15.93
2019-04-27T01:19:28.867Z,12.27
2019-04-27T01:22:04.587Z,16.60
2019-04-27T01:24:39.691Z,18.40
2019-04-27T01:27:49.439Z,17.73
2019-04-27T01:30:33.286Z,17.03
2019-04-27T01:33:09.637Z,15.90
2019-04-27T01:35:45.903Z,14.27
2019-04-27T01:38:21.198Z,21.37
2019-04-27T01:40:55.555Z,15.10
2019-04-27T01:43:30.277Z,14.97
2019-04-27T01:46:08.768Z,16.53
2019-04-27T01:48:43.971Z,19.07
2019-04-27T01:51:19.409Z,15.97
2019-04-27T01:53:55.057Z,24.93
2019-04-27T01:56:29.513Z,29.27
2019-04-27T01:59:03.730Z,16.53
2019-04-27T02:01:50.251Z,21.33
2019-04-27T02:04:41.794Z,20.03
2019-04-27T02:07:15.784Z,18.43
2019-04-27T02:09:50.606Z,18.87
2019-04-27T02:12:24.467Z,19.80
2019-04-27T02:14:58.873Z,20.37
2019-04-27T02:17:34.269Z,32.30
2019-04-27T02:20:10.039Z,22.17
2019-04-27T02:22:43.533Z,23.53
2019-04-27T02:25:18.972Z,29.93
2019-04-27T02:27:59.266Z,14.80
2019-04-27T02:31:01.872Z,13.70
2019-04-27T02:33:42.250Z,17.27
2019-04-27T02:36:16.065Z,12.87
2019-04-27T02:38:49.253Z,15.70
2019-04-27T02:41:22.746Z,15.27
2019-04-27T02:44:09.554Z,19.87
2019-04-27T02:46:42.129Z,20.60
2019-04-27T02:49:15.099Z,23.40
2019-04-27T02:52:06.568Z,24.20
2019-04-27T02:54:39.997Z,21.17
2019-04-27T02:57:13.377Z,30.33
2019-04-27T02:59:50.236Z,31.33
2019-04-27T03:02:34.307Z,149.63
2019-04-27T03:05:07.445Z,376.47
2019-04-27T03:07:39.880Z,374.97
2019-04-27T03:10:14.507Z,46.63
2019-04-27T03:12:51.377Z,30.10
2019-04-27T03:15:41.575Z,25.37
2019-04-27T03:18:41.652Z,41.33
2019-04-27T03:21:20.088Z,23.00
2019-04-27T03:23:52.892Z,19.17
2019-04-27T03:26:41.879Z,22.27
2019-04-27T03:29:13.583Z,29.97
2019-04-27T03:31:47.134Z,259.43
2019-04-27T03:34:21.740Z,205.27
2019-04-27T03:36:51.545Z,156.43
2019-04-27T03:39:22.130Z,627.83
2019-04-27T03:41:53.068Z,41.20
2019-04-27T03:44:22.352Z,60.80
2019-04-27T03:46:51.038Z,20.00
2019-04-27T03:49:29.407Z,20.77
2019-04-27T03:52:09.642Z,19.13
2019-04-27T03:54:55.918Z,20.23
2019-04-27T03:57:30.153Z,14.50
2019-04-27T04:00:04.468Z,20.90
2019-04-27T04:02:34.860Z,22.50
2019-04-27T04:05:04.270Z,25.67
2019-04-27T04:07:34.051Z,24.17
2019-04-27T04:10:03.546Z,26.60
2019-04-27T04:12:56.741Z,28.20
2019-04-27T04:15:44.808Z,20.57
2019-04-27T04:18:14.044Z,24.97
2019-04-27T04:20:42.608Z,21.23
2019-04-27T04:23:11.846Z,20.23
2019-04-27T04:25:41.171Z,17.97
2019-04-27T04:28:09.996Z,64.57
2019-04-27T04:30:40.274Z,69.23
2019-04-27T04:33:10.270Z,35.80
2019-04-27T04:35:41.493Z,187.77
2019-04-27T04:38:11.582Z,355.43
2019-04-27T04:40:50.178Z,247.20
2019-04-27T04:43:26.701Z,276.27
2019-04-27T04:46:22.939Z,303.47
2019-04-27T04:48:54.088Z,62.23
2019-04-27T04:51:26.849Z,64.03
2019-04-27T04:53:59.738Z,42.90
2019-04-27T04:56:32.472Z,46.10
2019-04-27T04:59:06.052Z,316.77
2019-04-27T05:01:39.965Z,221.27
2019-04-27T05:04:13.777Z,477.70
2019-04-27T05:06:46.020Z,194.20
2019-04-27T05:09:20.139Z,208.87
2019-04-27T05:11:56.030Z,66.97
2019-04-27T05:14:31.064Z,176.27
2019-04-27T05:17:05.685Z,231.73
2019-04-27T05:19:40.778Z,188.60
2019-04-27T05:22:15.426Z,48.07
2019-04-27T05:25:02.326Z,77.23
2019-04-27T05:27:40.760Z,22.37
2019-04-27T05:30:16.383Z,35.97
2019-04-27T05:32:54.071Z,72.47
2019-04-27T05:35:31.344Z,262.07
2019-04-27T05:38:13.097Z,34.20
2019-04-27T05:40:50.546Z,27.70
2019-04-27T05:43:33.985Z,33.90
2019-04-27T05:46:49.336Z,37.83
2019-04-27T05:49:46.095Z,28.47
2019-04-27T05:52:32.031Z,17.50
2019-04-27T05:55:14.142Z,20.67
2019-04-27T05:57:52.722Z,26.90
2019-04-27T06:00:31.600Z,40.07
2019-04-27T06:03:20.863Z,265.60
2019-04-27T06:06:02.446Z,22.53
2019-04-27T06:08:40.966Z,22.00
2019-04-27T06:11:22.173Z,18.47
2019-04-27T06:14:01.274Z,19.77
2019-04-27T06:16:50.934Z,16.57
2019-04-27T06:19:33.729Z,16.73
2019-04-27T06:22:10.901Z,16.47
2019-04-27T06:24:54.563Z,20.40
2019-04-27T06:27:34.966Z,12.77
2019-04-27T06:30:13.158Z,14.63
2019-04-27T06:33:09.524Z,15.10
2019-04-27T06:36:01.840Z,12.67
2019-04-27T06:38:53.173Z,13.70
2019-04-27T06:41:35.553Z,10.60
2019-04-27T06:44:25.449Z,12.97
2019-04-27T06:50:24.070Z,9.47
2019-04-27T06:53:13.540Z,9.13
2019-04-27T06:55:58.603Z,12.43
2019-04-27T06:58:46.590Z,7.43
2019-04-27T07:01:29.967Z,9.43
2019-04-27T07:04:29.285Z,8.37
2019-04-27T07:07:19.474Z,9.93
2019-04-27T07:10:00.363Z,9.63
2019-04-27T07:12:56.135Z,7.97
2019-04-27T07:15:38.844Z,9.13
2019-04-27T07:18:28.561Z,7.83
2019-04-27T07:21:18.905Z,10.90
2019-04-27T07:24:04.528Z,7.67
2019-04-27T07:27:16.113Z,12.60
2019-04-27T07:30:13.333Z,9.03
2019-04-27T07:32:58.850Z,7.33
2019-04-27T07:35:52.036Z,7.77
2019-04-27T07:38:39.965Z,9.43
2019-04-27T07:41:23.032Z,7.03
2019-04-27T07:44:32.035Z,5.87
2019-04-27T07:47:41.886Z,4.83
2019-04-27T07:50:15.380Z,3.13
2019-04-27T07:52:52.108Z,3.67
2019-04-27T07:55:22.673Z,5.70
2019-04-27T07:57:53.273Z,6.50
2019-04-27T08:00:21.882Z,7.27
2019-04-27T08:02:50.268Z,6.20
2019-04-27T08:05:19.199Z,5.87
2019-04-27T08:07:49.168Z,7.57
2019-04-27T08:10:19.317Z,6.70
2019-04-27T08:12:49.860Z,4.60
2019-04-27T08:15:18.928Z,3.45
2019-04-27T08:17:49.279Z,3.93
2019-04-27T08:20:20.880Z,3.62
2019-04-27T08:22:49.671Z,6.07
2019-04-27T08:25:19.023Z,4.80
2019-04-27T08:28:08.944Z,5.37
2019-04-27T08:30:46.019Z,3.40
2019-04-27T08:33:14.831Z,7.20
2019-04-27T08:35:43.389Z,5.65
2019-04-27T08:38:11.951Z,8.45
2019-04-27T08:40:40.385Z,5.15
2019-04-27T08:43:09.298Z,4.87
2019-04-27T08:45:39.181Z,6.78
2019-04-27T08:48:09.325Z,5.58
2019-04-27T08:50:41.795Z,5.22
2019-04-27T08:53:09.843Z,3.47
2019-04-27T08:55:39.515Z,4.07
2019-04-27T08:58:09.941Z,5.08
2019-04-27T09:00:39.108Z,5.22
2019-04-27T09:03:09.486Z,5.85
2019-04-27T09:05:39.006Z,4.35
2019-04-27T09:08:29.688Z,6.33
2019-04-27T09:11:14.885Z,5.40
2019-04-27T09:14:03.100Z,4.42
2019-04-27T09:16:57.231Z,4.55
2019-04-27T09:19:25.393Z,3.92
2019-04-27T09:22:12.244Z,5.67
2019-04-27T09:24:34.600Z,6.60
2019-04-27T09:27:03.500Z,5.37
2019-04-27T09:29:31.831Z,5.50
2019-04-27T09:32:01.803Z,6.87
2019-04-27T09:34:30.631Z,5.20
2019-04-27T09:37:00.330Z,7.22
2019-04-27T09:39:30.572Z,6.25
2019-04-27T09:41:59.130Z,6.03
2019-04-27T09:44:27.493Z,7.72
2019-04-27T09:46:56.205Z,6.92
2019-04-27T09:49:26.303Z,6.92
2019-04-27T09:51:55.820Z,5.90
2019-04-27T09:54:24.357Z,5.15
2019-04-27T09:56:53.178Z,4.33
2019-04-27T09:59:21.695Z,6.25
2019-04-27T10:01:50.258Z,4.10
2019-04-27T10:04:18.728Z,4.95
2019-04-27T10:06:48.841Z,4.62
2019-04-27T10:09:17.571Z,10.25
2019-04-27T10:11:46.071Z,6.42
2019-04-27T10:14:16.364Z,4.58
2019-04-27T10:16:46.746Z,3.85
2019-04-27T10:19:28.238Z,6.47
2019-04-27T10:21:48.980Z,4.47
2019-04-27T10:24:17.362Z,8.28
2019-04-27T10:26:47.986Z,4.70
2019-04-27T10:29:16.489Z,3.90
2019-04-27T10:31:46.085Z,5.50
2019-04-27T10:34:16.211Z,5.08
2019-04-27T10:36:46.066Z,4.55
2019-04-27T10:39:17.042Z,6.25
2019-04-27T10:41:46.283Z,5.80
2019-04-27T10:44:16.277Z,5.05
2019-04-27T10:46:45.276Z,6.85
2019-04-27T10:49:15.484Z,4.75
2019-04-27T10:51:45.767Z,4.00
2019-04-27T10:54:14.493Z,4.75
2019-04-27T10:56:42.995Z,5.42
2019-04-27T10:59:11.579Z,5.03
2019-04-27T11:01:40.118Z,5.60
2019-04-27T11:04:26.518Z,4.40
2019-04-27T11:06:58.272Z,5.87
2019-04-27T11:09:26.818Z,6.20
2019-04-27T11:11:58.846Z,3.00
2019-04-27T11:14:27.801Z,3.17
2019-04-27T11:16:57.761Z,5.95
2019-04-27T11:19:26.833Z,5.00
2019-04-27T11:21:55.621Z,6.80
2019-04-27T11:24:24.289Z,5.78
2019-04-27T11:26:52.916Z,3.83
2019-04-27T11:29:21.802Z,3.60
2019-04-27T11:31:51.994Z,4.78
2019-04-27T11:34:22.396Z,4.92
2019-04-27T11:37:08.858Z,4.10
2019-04-27T11:39:37.416Z,5.55
2019-04-27T11:42:06.211Z,4.83
2019-04-27T11:44:35.912Z,4.78
2019-04-27T11:47:06.053Z,5.00
2019-04-27T11:49:35.955Z,3.67
2019-04-27T11:52:05.831Z,3.95
2019-04-27T11:54:35.622Z,5.85
2019-04-27T11:57:04.299Z,2.98
2019-04-27T11:59:34.336Z,3.35
2019-04-27T12:02:04.678Z,5.30
2019-04-27T12:04:33.098Z,4.12
2019-04-27T12:07:01.631Z,5.47
2019-04-27T12:09:32.476Z,3.70
2019-04-27T12:12:12.606Z,3.55
2019-04-27T12:14:31.220Z,5.30
2019-04-27T12:16:59.723Z,3.35
2019-04-27T12:19:28.329Z,3.62
2019-04-27T12:21:56.744Z,4.67
2019-04-27T12:24:27.935Z,3.72
2019-04-27T12:27:16.211Z,5.33
2019-04-27T12:30:04.014Z,3.55
2019-04-27T12:32:32.553Z,3.17
2019-04-27T12:35:03.199Z,4.17
2019-04-27T12:37:31.664Z,4.22
2019-04-27T12:40:00.483Z,4.95
2019-04-27T12:42:28.951Z,4.08
2019-04-27T12:44:58.713Z,4.60
2019-04-27T12:47:27.231Z,7.12
2019-04-27T12:49:57.507Z,3.50
2019-04-27T12:52:26.181Z,3.35
2019-04-27T12:55:04.234Z,4.85
2019-04-27T12:57:46.806Z,4.20
2019-04-27T13:00:21.732Z,3.20
2019-04-27T13:02:50.288Z,4.62
2019-04-27T13:05:18.774Z,3.10
2019-04-27T13:07:47.277Z,5.20
2019-04-27T13:10:16.196Z,4.10
2019-04-27T13:12:46.113Z,3.15
2019-04-27T13:15:17.618Z,4.33
2019-04-27T13:17:46.106Z,5.22
2019-04-27T13:20:16.490Z,2.25
2019-04-27T13:22:45.919Z,4.03
2019-04-27T13:25:15.560Z,3.55
2019-04-27T13:27:44.028Z,3.62
2019-04-27T13:30:13.234Z,4.50
2019-04-27T13:32:41.660Z,3.73
2019-04-27T13:35:10.106Z,3.40
2019-04-27T13:37:42.466Z,6.70
2019-04-27T13:40:13.710Z,5.37
2019-04-27T13:42:49.476Z,3.03
2019-04-27T13:45:28.251Z,5.73
2019-04-27T13:48:14.960Z,6.83
2019-04-27T13:50:47.979Z,6.20
2019-04-27T13:53:16.825Z,3.00
2019-04-27T13:55:48.403Z,4.87
2019-04-27T13:58:16.804Z,7.97
2019-04-27T14:00:45.241Z,4.72
2019-04-27T14:03:14.665Z,6.37
2019-04-27T14:05:44.386Z,6.30
2019-04-27T14:08:12.793Z,4.30
2019-04-27T14:10:41.221Z,3.67
2019-04-27T14:13:11.570Z,5.10
2019-04-27T14:15:39.992Z,5.37
2019-04-27T14:18:08.539Z,3.87
2019-04-27T14:20:38.838Z,4.30
2019-04-27T14:23:18.626Z,4.62
2019-04-27T14:25:47.716Z,4.65
2019-04-27T14:28:16.155Z,6.47
2019-04-27T14:30:44.664Z,8.15
2019-04-27T14:33:13.155Z,3.90
2019-04-27T14:35:42.667Z,5.43
2019-04-27T14:38:11.262Z,4.08
2019-04-27T14:40:39.784Z,3.92
2019-04-27T14:43:08.562Z,3.73
2019-04-27T14:45:38.149Z,6.17
2019-04-27T14:48:08.293Z,5.63
2019-04-27T14:50:40.258Z,4.87
2019-04-27T14:53:08.843Z,4.87
2019-04-27T14:55:38.836Z,7.57
2019-04-27T14:58:08.723Z,8.10
2019-04-27T15:00:38.484Z,5.67
2019-04-27T15:03:07.188Z,5.87
2019-04-27T15:05:37.384Z,4.73
2019-04-27T15:08:08.721Z,5.70
2019-04-27T15:10:36.296Z,6.33
2019-04-27T15:13:06.651Z,7.00
2019-04-27T15:15:34.988Z,6.40
2019-04-27T15:18:05.396Z,4.07
2019-04-27T15:20:41.011Z,5.97
2019-04-27T15:23:10.173Z,8.53
2019-04-27T15:25:45.094Z,8.43
2019-04-27T15:28:15.082Z,6.63
2019-04-27T15:31:22.771Z,7.47
2019-04-27T15:34:07.791Z,8.57
2019-04-27T15:36:56.741Z,6.50
2019-04-27T15:39:58.305Z,7.73
2019-04-27T15:42:31.746Z,7.37
2019-04-27T15:45:00.278Z,4.77
2019-04-27T15:47:29.058Z,8.53
2019-04-27T15:49:58.993Z,6.17
2019-04-27T15:52:30.234Z,6.60
2019-04-27T15:55:02.875Z,9.43
2019-04-27T15:57:29.712Z,8.30
2019-04-27T15:59:58.476Z,7.87
2019-04-27T16:02:28.829Z,11.70
2019-04-27T16:04:58.270Z,8.67
2019-04-27T16:07:30.391Z,10.47
2019-04-27T16:09:59.142Z,7.60
2019-04-27T16:12:28.437Z,6.40
2019-04-27T16:14:58.046Z,6.17
2019-04-27T16:17:28.655Z,6.77
2019-04-27T16:19:58.090Z,3.77
2019-04-27T16:22:27.687Z,6.95
2019-04-27T16:24:58.020Z,3.17
2019-04-27T16:27:31.574Z,5.40
2019-04-27T16:30:18.039Z,3.57
2019-04-27T16:32:46.412Z,8.77
2019-04-27T16:35:19.407Z,5.40
2019-04-27T16:38:11.129Z,5.08
2019-04-27T16:40:39.561Z,4.53
2019-04-27T16:43:08.960Z,5.97
2019-04-27T16:45:38.811Z,3.93
2019-04-27T16:48:09.090Z,5.22
2019-04-27T16:50:39.026Z,4.07
2019-04-27T16:53:10.697Z,8.47
2019-04-27T16:55:38.791Z,4.17
2019-04-27T16:58:09.790Z,6.60
2019-04-27T17:00:38.803Z,5.40
2019-04-27T17:03:09.222Z,5.60
2019-04-27T17:05:38.103Z,4.27
2019-04-27T17:08:11.011Z,4.47
2019-04-27T17:10:38.556Z,3.73
2019-04-27T17:13:12.963Z,6.23
2019-04-27T17:15:58.892Z,3.43
2019-04-27T17:18:35.392Z,3.37
2019-04-27T17:21:18.445Z,3.57
2019-04-27T17:23:38.858Z,3.07
2019-04-27T17:26:20.639Z,4.90
2019-04-27T17:28:59.206Z,3.20
2019-04-27T17:31:29.814Z,5.27
2019-04-27T17:34:00.713Z,3.27
2019-04-27T17:36:29.293Z,5.93
2019-04-27T17:38:58.349Z,4.00
2019-04-27T17:41:28.320Z,4.07
2019-04-27T17:43:58.945Z,4.03
2019-04-27T17:46:28.202Z,4.53
2019-04-27T17:48:58.592Z,6.03
2019-04-27T17:51:45.703Z,2.80
2019-04-27T17:54:14.124Z,3.10
2019-04-27T17:56:49.416Z,2.50
2019-04-27T17:59:17.288Z,2.93
2019-04-27T18:01:43.195Z,6.27
2019-04-27T18:04:11.601Z,3.90
2019-04-27T18:06:42.520Z,2.77
2019-04-27T18:09:13.964Z,5.87
2019-04-27T18:11:43.350Z,3.07
2019-04-27T18:14:14.549Z,2.97
2019-04-27T18:16:42.076Z,3.50
2019-04-27T18:19:25.246Z,4.90
2019-04-27T18:22:01.325Z,2.40
2019-04-27T18:24:38.012Z,3.93
2019-04-27T18:27:26.068Z,5.90
2019-04-27T18:30:08.412Z,11.10
2019-04-27T18:32:40.330Z,11.93
2019-04-27T18:35:09.984Z,9.17
2019-04-27T18:37:38.967Z,11.40
2019-04-27T18:40:09.344Z,9.00
2019-04-27T18:42:38.513Z,6.67
2019-04-27T18:45:08.386Z,6.70
2019-04-27T18:47:40.575Z,11.23
2019-04-27T18:50:28.180Z,8.17
2019-04-27T18:53:12.007Z,4.77
2019-04-27T18:55:40.423Z,7.80
2019-04-27T18:58:09.142Z,4.47
2019-04-27T19:00:38.194Z,7.80
2019-04-27T19:03:06.837Z,11.97
2019-04-27T19:05:40.169Z,10.30
2019-04-27T19:08:07.054Z,6.57
2019-04-27T19:10:38.930Z,7.17
2019-04-27T19:13:08.822Z,10.83
2019-04-27T19:15:38.629Z,9.70
2019-04-27T19:18:10.560Z,9.20
2019-04-27T19:20:39.140Z,7.57
2019-04-27T19:23:09.396Z,15.40
2019-04-27T19:25:44.132Z,7.57
2019-04-27T19:28:28.611Z,6.77
2019-04-27T19:31:04.426Z,6.30
2019-04-27T19:33:33.260Z,4.50
2019-04-27T19:36:01.971Z,5.73
2019-04-27T19:38:33.576Z,5.50
2019-04-27T19:41:05.850Z,4.50
2019-04-27T19:43:34.451Z,5.13
2019-04-27T19:46:04.146Z,5.60
2019-04-27T19:48:34.896Z,7.33
2019-04-27T19:51:04.171Z,7.67
2019-04-27T19:53:34.517Z,5.17
2019-04-27T19:56:03.756Z,6.00
2019-04-27T19:58:38.165Z,5.87
2019-04-27T20:01:13.923Z,6.27
2019-04-27T20:03:52.298Z,6.70
2019-04-27T20:06:26.675Z,5.83
2019-04-27T20:08:58.275Z,7.57
2019-04-27T20:11:28.486Z,5.80
2019-04-27T20:13:57.273Z,3.83
2019-04-27T20:16:31.736Z,7.83
2019-04-27T20:19:01.511Z,5.67
2019-04-27T20:21:31.203Z,8.87
2019-04-27T20:24:01.584Z,6.47
2019-04-27T20:26:31.003Z,32.67
2019-04-27T20:29:01.402Z,32.53
2019-04-27T20:31:30.689Z,13.30
2019-04-27T20:34:00.557Z,10.60
2019-04-27T20:36:31.254Z,10.57
2019-04-27T20:39:01.189Z,8.17
2019-04-27T20:41:31.951Z,6.20
2019-04-27T20:44:02.213Z,6.07
2019-04-27T20:46:31.187Z,5.10
2019-04-27T20:49:02.077Z,8.80
2019-04-27T20:51:51.076Z,6.47
2019-04-27T20:54:19.530Z,7.60
2019-04-27T20:56:51.586Z,6.60
2019-04-27T20:59:22.094Z,10.37
2019-04-27T21:01:50.837Z,5.63
2019-04-27T21:04:22.296Z,7.73
2019-04-27T21:06:54.114Z,7.33
2019-04-27T21:09:22.526Z,10.57
2019-04-27T21:11:50.966Z,9.03
2019-04-27T21:14:21.586Z,11.83
2019-04-27T21:16:51.540Z,11.00
2019-04-27T21:19:21.129Z,10.17
2019-04-27T21:21:51.027Z,10.00
2019-04-27T21:24:20.782Z,6.37
2019-04-27T21:26:51.713Z,7.43
2019-04-27T21:29:20.931Z,6.37
2019-04-27T21:31:49.505Z,4.20
2019-04-27T21:34:18.363Z,4.53
2019-04-27T21:36:47.203Z,25.17
2019-04-27T21:39:15.611Z,10.37
2019-04-27T21:41:44.051Z,4.80
2019-04-27T21:44:12.521Z,9.73
2019-04-27T21:46:41.735Z,5.30
2019-04-27T21:49:12.707Z,7.93
2019-04-27T21:52:01.366Z,12.47
2019-04-27T21:54:32.817Z,11.87
2019-04-27T21:57:01.555Z,11.87
2019-04-27T21:59:30.281Z,6.73
2019-04-27T22:02:02.322Z,5.07
2019-04-27T22:04:31.516Z,6.50
2019-04-27T22:07:01.407Z,5.80
2019-04-27T22:09:29.998Z,8.30
2019-04-27T22:11:58.420Z,8.77
2019-04-27T22:14:26.993Z,5.80
2019-04-27T22:16:55.428Z,4.03
2019-04-27T22:19:24.606Z,5.20
2019-04-27T22:21:53.099Z,6.13
2019-04-27T22:24:36.061Z,5.87
2019-04-27T22:27:06.626Z,8.57
2019-04-27T22:29:35.073Z,4.50
2019-04-27T22:32:03.682Z,6.57
2019-04-27T22:34:32.333Z,5.83
2019-04-27T22:37:02.754Z,8.10
2019-04-27T22:39:40.677Z,9.17
2019-04-27T22:42:27.315Z,9.73
2019-04-27T22:45:01.230Z,6.57
2019-04-27T22:47:31.804Z,4.83
2019-04-27T22:50:00.541Z,7.03
2019-04-27T22:52:30.714Z,4.93
2019-04-27T22:55:01.565Z,4.10
2019-04-27T22:57:38.673Z,5.33
2019-04-27T23:00:27.454Z,6.87
2019-04-27T23:03:00.624Z,5.37
2019-04-27T23:05:31.868Z,7.93
2019-04-27T23:08:01.940Z,10.57
2019-04-27T23:10:31.482Z,6.40
2019-04-27T23:13:01.066Z,4.50
2019-04-27T23:15:36.092Z,7.40
2019-04-27T23:18:05.651Z,6.03
2019-04-27T23:20:34.150Z,6.77
2019-04-27T23:23:02.852Z,6.03
2019-04-27T23:25:31.567Z,3.87
2019-04-27T23:28:00.073Z,6.23
2019-04-27T23:30:50.976Z,3.20
2019-04-27T23:33:21.088Z,7.13
2019-04-27T23:35:51.558Z,4.70
2019-04-27T23:38:20.993Z,8.80
2019-04-27T23:40:49.430Z,6.70
2019-04-27T23:43:17.916Z,8.70
2019-04-27T23:45:46.473Z,5.40
2019-04-27T23:48:14.994Z,8.57
2019-04-27T23:50:45.684Z,6.50
2019-04-27T23:53:18.639Z,4.53
2019-04-27T23:55:47.110Z,4.70
2019-04-27T23:58:16.554Z,6.47
